Pearl Of Scandinavia — OWFU2 — position and weather

sailwx.info

Track history (hours):
 
Tides and Currents Weather Stations Pressure Air Temp Water Temp Dewpoint Dewpoint Depression Visibility Wind Speed Wind Dir Waves Ship Positions

Pearl Of Scandinavia

Last reported at 2016-May-03 04:33 UTC. Time now 2016-May-03 04:55 UTC.
Position N 59°13' E 010°38'.

Length 176.4 m; beam 34 m; draft 6.215 m.

Type: Ship. MMSI: 219945000.

Date/timePositionNaut miles runAvg speedWind from/ knotsBaromVisibWave heightAir tempDewpointWater temp
2016-May-03 04:33N 59°13' E 010°38'1616.3
2016-May-03 03:33N 58°57' E 010°43'1717.3
2016-May-03 02:33N 58°40' E 010°49'1716.9
2016-May-03 01:33N 58°23' E 010°56'1716.7
2016-May-03 00:31N 58°07' E 011°06'1516.1
2016-May-02 23:33N 57°52' E 011°15'1615.7
2016-May-02 22:33N 57°37' E 011°23'1616.2
2016-May-02 21:33N 57°22' E 011°33'1616.3
2016-May-02 20:33N 57°06' E 011°42'1615.9
2016-May-02 19:33N 56°51' E 011°52'1615.9
2016-May-02 18:33N 56°38' E 012°08'3316.5
2016-May-02 16:33N 56°08' E 012°32'1616.1
2016-May-02 15:33N 55°53' E 012°44'1212.0
2016-May-02 14:33N 55°42' E 012°36'0 0.0
2016-May-02 13:31N 55°42' E 012°36'0 0.0
2016-May-02 12:31N 55°42' E 012°36'0 0.0
2016-May-02 11:32N 55°42' E 012°36'0 0.0
2016-May-02 10:32N 55°42' E 012°36'0 0.0
2016-May-02 09:32N 55°42' E 012°36'0 0.0
2016-May-02 08:31N 55°42' E 012°36'0 0.2
2016-May-02 07:33N 55°42' E 012°36'1111.1
2016-May-02 06:33N 55°53' E 012°40'1413.8
2016-May-02 05:33N 56°06' E 012°33'1514.7
2016-May-02 04:33N 56°20' E 012°22'1615.7
2016-May-02 03:33N 56°35' E 012°15'1616.3
2016-May-02 02:33N 56°51' E 012°08'1616.3
2016-May-02 01:33N 57°06' E 011°58'1716.6
2016-May-02 00:33N 57°21' E 011°44'1616.4
2016-May-01 23:33N 57°35' E 011°28'1616.4
2016-May-01 22:33N 57°50' E 011°16'1716.6
2016-May-01 21:33N 58°06' E 011°07'1615.5
2016-May-01 20:33N 58°21' E 010°59'1615.8
2016-May-01 19:33N 58°36' E 010°51'1615.8
2016-May-01 18:33N 58°52' E 010°44'1616.2
2016-May-01 17:33N 59°08' E 010°39'1717.0
2016-May-01 16:33N 59°24' E 010°34'1515.5
2016-May-01 15:33N 59°40' E 010°37'14 1.7
2016-May-01 07:22N 59°54' E 010°41'1214.7
2016-May-01 06:33N 59°42' E 010°36'1413.8
2016-May-01 05:34N 59°28' E 010°34'1616.3
2016-May-01 04:34N 59°12' E 010°39'1616.5
2016-May-01 03:34N 58°56' E 010°42'1615.9
2016-May-01 02:34N 58°40' E 010°46'1615.7
2016-May-01 01:34N 58°25' E 010°56'1615.8
2016-May-01 00:33N 58°10' E 011°05'1615.8
2016-Apr-30 23:34N 57°55' E 011°14'1615.8
2016-Apr-30 22:33N 57°40' E 011°22'1616.0
2016-Apr-30 21:34N 57°24' E 011°31'1615.9
2016-Apr-30 20:33N 57°09' E 011°39'1615.7
2016-Apr-30 19:33N 56°55' E 011°50'1515.4
2016-Apr-30 18:34N 56°41' E 012°04'1515.3
2016-Apr-30 17:34N 56°28' E 012°17'1717.4
2016-Apr-30 16:33N 56°12' E 012°29'1716.6
2016-Apr-30 15:34N 55°57' E 012°43'1514.8
2016-Apr-30 14:34N 55°43' E 012°37'1 0.8
2016-Apr-30 13:33N 55°42' E 012°36'0 0.0
2016-Apr-30 12:33N 55°42' E 012°36'0 0.0
2016-Apr-30 11:32N 55°42' E 012°36'0 0.0
2016-Apr-30 10:31N 55°42' E 012°36'0 0.0
2016-Apr-30 09:32N 55°42' E 012°36'0 0.0
2016-Apr-30 08:32N 55°42' E 012°36'0 0.1
2016-Apr-30 07:34N 55°42' E 012°36'1010.1
2016-Apr-30 06:34N 55°52' E 012°41'1313.5
2016-Apr-30 05:34N 56°05' E 012°35'1514.5
2016-Apr-30 04:33N 56°18' E 012°23'1615.5
2016-Apr-30 03:33N 56°33' E 012°16'1616.3
2016-Apr-30 02:33N 56°49' E 012°09'1716.8
2016-Apr-30 01:33N 57°05' E 011°59'1717.2
2016-Apr-30 00:33N 57°20' E 011°45'1817.6
2016-Apr-29 23:33N 57°35' E 011°28'1817.8
2016-Apr-29 22:33N 57°52' E 011°16'1717.5
2016-Apr-29 21:33N 58°08' E 011°06'1716.9
2016-Apr-29 20:33N 58°25' E 010°57'1616.4
2016-Apr-29 19:33N 58°40' E 010°48'1616.4
2016-Apr-29 18:33N 58°57' E 010°43'1616.0
2016-Apr-29 17:33N 59°12' E 010°38'1716.5
2016-Apr-29 16:33N 59°29' E 010°34'1714.4
2016-Apr-29 15:22N 59°46' E 010°33'9 1.1
2016-Apr-29 07:19N 59°54' E 010°41'1114.7
2016-Apr-29 06:33N 59°43' E 010°35'1414.1
2016-Apr-29 05:34N 59°29' E 010°34'1616.0
2016-Apr-29 04:34N 59°13' E 010°38'1616.2
2016-Apr-29 03:34N 58°57' E 010°37'1716.5
2016-Apr-29 02:34N 58°40' E 010°33'1716.5
2016-Apr-29 01:33N 58°24' E 010°42'1717.0
2016-Apr-29 00:34N 58°08' E 010°52'1717.0
2016-Apr-28 23:34N 57°52' E 011°03'1615.9
2016-Apr-28 22:34N 57°38' E 011°17'1616.2
2016-Apr-28 21:34N 57°24' E 011°30'1716.6
2016-Apr-28 20:34N 57°08' E 011°40'1616.4
2016-Apr-28 19:34N 56°53' E 011°52'1616.4
2016-Apr-28 18:34N 56°39' E 012°07'2416.7
2016-Apr-28 17:06N 56°17' E 012°25'916.6
2016-Apr-28 16:33N 56°08' E 012°32'1616.4
2016-Apr-28 15:34N 55°53' E 012°44'1212.2
2016-Apr-28 14:33N 55°42' E 012°36'0 0.0
2016-Apr-28 13:32N 55°42' E 012°36'0 0.0
2016-Apr-28 12:32N 55°42' E 012°36'0 0.0
2016-Apr-28 11:32N 55°42' E 012°36'0 0.0
2016-Apr-28 10:19N 55°42' E 012°36'0 0.0
2016-Apr-28 09:33N 55°42' E 012°36'0 0.0
2016-Apr-28 08:33N 55°42' E 012°36'0 0.2
2016-Apr-28 07:33N 55°42' E 012°36'10 9.9
2016-Apr-28 06:33N 55°52' E 012°41'1313.2
2016-Apr-28 05:34N 56°05' E 012°36'3115.4
2016-Apr-28 03:31N 56°34' E 012°16'1616.6
2016-Apr-28 02:33N 56°50' E 012°09'1716.5
2016-Apr-28 01:33N 57°05' E 011°59'1616.4
2016-Apr-28 00:33N 57°20' E 011°45'1615.9
2016-Apr-27 23:33N 57°33' E 011°29'1515.1
2016-Apr-27 22:33N 57°47' E 011°19'1616.1
2016-Apr-27 21:34N 58°02' E 011°09'1716.6
2016-Apr-27 20:33N 58°18' E 011°01'1716.9
2016-Apr-27 19:34N 58°35' E 010°51'1717.1
2016-Apr-27 18:33N 58°51' E 010°44'1817.6
2016-Apr-27 17:33N 59°09' E 010°39'1717.2
2016-Apr-27 16:34N 59°26' E 010°34'1514.8
2016-Apr-27 15:33N 59°40' E 010°37'13 1.6
2016-Apr-27 07:22N 59°54' E 010°41'1215.3
2016-Apr-27 06:33N 59°41' E 010°36'1312.8
2016-Apr-27 05:33N 59°29' E 010°34'1616.1
2016-Apr-27 04:33N 59°13' E 010°39'1615.9
2016-Apr-27 03:33N 58°57' E 010°42'1615.8
2016-Apr-27 02:33N 58°41' E 010°45'1616.1
2016-Apr-27 01:33N 58°26' E 010°55'1616.3
2016-Apr-27 00:33N 58°10' E 011°04'1616.3
2016-Apr-26 23:33N 57°55' E 011°13'1716.9
2016-Apr-26 22:33N 57°39' E 011°23'1716.8
2016-Apr-26 21:33N 57°23' E 011°32'1616.2
2016-Apr-26 20:33N 57°07' E 011°41'1716.5
2016-Apr-26 19:30N 56°51' E 011°53'1516.1
2016-Apr-26 18:33N 56°38' E 012°07'3316.6
2016-Apr-26 16:34N 56°08' E 012°32'1817.6
2016-Apr-26 15:33N 55°52' E 012°45'1110.7
2016-Apr-26 14:33N 55°42' E 012°36'0 0.0
2016-Apr-26 13:33N 55°42' E 012°36'0 0.0
2016-Apr-26 12:33N 55°42' E 012°36'0 0.0
2016-Apr-26 11:33N 55°42' E 012°36'0 0.0
2016-Apr-26 10:33N 55°42' E 012°36'0 0.0
2016-Apr-26 09:33N 55°42' E 012°36'0 0.0
2016-Apr-26 08:33N 55°42' E 012°36'0 0.3
2016-Apr-26 07:34N 55°42' E 012°36'1211.5
2016-Apr-26 06:34N 55°54' E 012°40'1413.9
2016-Apr-26 05:34N 56°07' E 012°32'3014.8
2016-Apr-26 03:33N 56°35' E 012°13'1616.0
2016-Apr-26 02:33N 56°50' E 012°04'1615.9
2016-Apr-26 01:33N 57°05' E 011°57'1615.9
2016-Apr-26 00:34N 57°20' E 011°45'1616.2
2016-Apr-25 23:33N 57°34' E 011°30'1616.1
2016-Apr-25 22:33N 57°49' E 011°17'1615.8
2016-Apr-25 21:33N 58°04' E 011°09'1615.9
2016-Apr-25 20:33N 58°19' E 010°60'1616.5
2016-Apr-25 19:33N 58°35' E 010°50'1717.3
2016-Apr-25 18:33N 58°51' E 010°43'1717.4
2016-Apr-25 17:33N 59°09' E 010°39'1716.8
2016-Apr-25 16:33N 59°25' E 010°33'1515.2
2016-Apr-25 15:33N 59°41' E 010°37'13 1.6
2016-Apr-25 07:17N 59°54' E 010°41'1115.2
2016-Apr-25 06:33N 59°43' E 010°35'1413.8
2016-Apr-25 05:33N 59°29' E 010°35'1616.1
2016-Apr-25 04:33N 59°13' E 010°38'1616.0
2016-Apr-25 03:33N 58°57' E 010°43'1615.9
2016-Apr-25 02:33N 58°41' E 010°46'1615.7
2016-Apr-25 01:33N 58°26' E 010°55'1615.9
2016-Apr-25 00:33N 58°11' E 011°04'1615.9
2016-Apr-24 23:33N 57°56' E 011°13'1615.9
2016-Apr-24 22:33N 57°41' E 011°22'1615.8
2016-Apr-24 21:33N 57°26' E 011°31'1615.8
2016-Apr-24 20:33N 57°11' E 011°40'1616.2
2016-Apr-24 19:33N 56°55' E 011°49'1616.1
2016-Apr-24 18:33N 56°42' E 012°05'1616.1
2016-Apr-24 17:33N 56°27' E 012°17'1716.9
2016-Apr-24 16:32N 56°11' E 012°30'1616.8
2016-Apr-24 15:33N 55°57' E 012°43'1514.6
2016-Apr-24 14:33N 55°43' E 012°37'1 0.7
2016-Apr-24 13:32N 55°42' E 012°36'0 0.0
2016-Apr-24 12:32N 55°42' E 012°36'0 0.0
2016-Apr-24 11:32N 55°42' E 012°36'0 0.0
2016-Apr-24 10:32N 55°42' E 012°36'0 0.0
2016-Apr-24 09:32N 55°42' E 012°36'0 0.0
2016-Apr-24 08:32N 55°42' E 012°36'0 0.3
2016-Apr-24 07:33N 55°42' E 012°36'1211.6
2016-Apr-24 06:34N 55°54' E 012°40'1413.7
2016-Apr-24 05:34N 56°07' E 012°32'2214.9
2016-Apr-24 04:06N 56°27' E 012°18'815.2
2016-Apr-24 03:33N 56°35' E 012°13'1515.5
2016-Apr-24 02:33N 56°50' E 012°05'1616.2
2016-Apr-24 01:33N 57°05' E 011°57'1616.4
2016-Apr-24 00:33N 57°20' E 011°44'1716.7
2016-Apr-23 23:33N 57°35' E 011°29'1716.8
2016-Apr-23 22:33N 57°50' E 011°16'1616.5
2016-Apr-23 21:33N 58°06' E 011°08'1616.1
2016-Apr-23 20:33N 58°21' E 010°59'1616.4
2016-Apr-23 19:34N 58°37' E 010°50'1717.4
2016-Apr-23 18:33N 58°54' E 010°43'1818.0
2016-Apr-23 17:33N 59°12' E 010°38'1717.4
2016-Apr-23 16:33N 59°29' E 010°34'1413.7
2016-Apr-23 15:33N 59°43' E 010°35'11 1.4
2016-Apr-23 07:20N 59°54' E 010°41'1214.9
2016-Apr-23 06:32N 59°42' E 010°36'1313.4
2016-Apr-23 05:33N 59°29' E 010°34'1616.3
2016-Apr-23 04:33N 59°13' E 010°38'  
Track history (hours):
 
Tides and Currents Weather Stations Pressure Air Temp Water Temp Dewpoint Dewpoint Depression Visibility Wind Speed Wind Dir Waves Ship Positions

Pearl Of Scandinavia

Last reported at 2016-May-03 04:33 UTC. Time now 2016-May-03 04:55 UTC.
Position N 59°13' E 010°38'.

Length 176.4 m; beam 34 m; draft 6.215 m.

Type: Ship. MMSI: 219945000.

Date/timePositionNaut miles runAvg speedWind from/ knotsBaromVisibWave heightAir tempDewpointWater temp
2016-May-03 04:33N 59°13' E 010°38'1616.3
2016-May-03 03:33N 58°57' E 010°43'1717.3
2016-May-03 02:33N 58°40' E 010°49'1716.9
2016-May-03 01:33N 58°23' E 010°56'1716.7
2016-May-03 00:31N 58°07' E 011°06'1516.1
2016-May-02 23:33N 57°52' E 011°15'1615.7
2016-May-02 22:33N 57°37' E 011°23'1616.2
2016-May-02 21:33N 57°22' E 011°33'1616.3
2016-May-02 20:33N 57°06' E 011°42'1615.9
2016-May-02 19:33N 56°51' E 011°52'1615.9
2016-May-02 18:33N 56°38' E 012°08'3316.5
2016-May-02 16:33N 56°08' E 012°32'1616.1
2016-May-02 15:33N 55°53' E 012°44'1212.0
2016-May-02 14:33N 55°42' E 012°36'0 0.0
2016-May-02 13:31N 55°42' E 012°36'0 0.0
2016-May-02 12:31N 55°42' E 012°36'0 0.0
2016-May-02 11:32N 55°42' E 012°36'0 0.0
2016-May-02 10:32N 55°42' E 012°36'0 0.0
2016-May-02 09:32N 55°42' E 012°36'0 0.0
2016-May-02 08:31N 55°42' E 012°36'0 0.2
2016-May-02 07:33N 55°42' E 012°36'1111.1
2016-May-02 06:33N 55°53' E 012°40'1413.8
2016-May-02 05:33N 56°06' E 012°33'1514.7
2016-May-02 04:33N 56°20' E 012°22'1615.7
2016-May-02 03:33N 56°35' E 012°15'1616.3
2016-May-02 02:33N 56°51' E 012°08'1616.3
2016-May-02 01:33N 57°06' E 011°58'1716.6
2016-May-02 00:33N 57°21' E 011°44'1616.4
2016-May-01 23:33N 57°35' E 011°28'1616.4
2016-May-01 22:33N 57°50' E 011°16'1716.6
2016-May-01 21:33N 58°06' E 011°07'1615.5
2016-May-01 20:33N 58°21' E 010°59'1615.8
2016-May-01 19:33N 58°36' E 010°51'1615.8
2016-May-01 18:33N 58°52' E 010°44'1616.2
2016-May-01 17:33N 59°08' E 010°39'1717.0
2016-May-01 16:33N 59°24' E 010°34'1515.5
2016-May-01 15:33N 59°40' E 010°37'14 1.7
2016-May-01 07:22N 59°54' E 010°41'1214.7
2016-May-01 06:33N 59°42' E 010°36'1413.8
2016-May-01 05:34N 59°28' E 010°34'1616.3
2016-May-01 04:34N 59°12' E 010°39'1616.5
2016-May-01 03:34N 58°56' E 010°42'1615.9
2016-May-01 02:34N 58°40' E 010°46'1615.7
2016-May-01 01:34N 58°25' E 010°56'1615.8
2016-May-01 00:33N 58°10' E 011°05'1615.8
2016-Apr-30 23:34N 57°55' E 011°14'1615.8
2016-Apr-30 22:33N 57°40' E 011°22'1616.0
2016-Apr-30 21:34N 57°24' E 011°31'1615.9
2016-Apr-30 20:33N 57°09' E 011°39'1615.7
2016-Apr-30 19:33N 56°55' E 011°50'1515.4
2016-Apr-30 18:34N 56°41' E 012°04'1515.3
2016-Apr-30 17:34N 56°28' E 012°17'1717.4
2016-Apr-30 16:33N 56°12' E 012°29'1716.6
2016-Apr-30 15:34N 55°57' E 012°43'1514.8
2016-Apr-30 14:34N 55°43' E 012°37'1 0.8
2016-Apr-30 13:33N 55°42' E 012°36'0 0.0
2016-Apr-30 12:33N 55°42' E 012°36'0 0.0
2016-Apr-30 11:32N 55°42' E 012°36'0 0.0
2016-Apr-30 10:31N 55°42' E 012°36'0 0.0
2016-Apr-30 09:32N 55°42' E 012°36'0 0.0
2016-Apr-30 08:32N 55°42' E 012°36'0 0.1
2016-Apr-30 07:34N 55°42' E 012°36'1010.1
2016-Apr-30 06:34N 55°52' E 012°41'1313.5
2016-Apr-30 05:34N 56°05' E 012°35'1514.5
2016-Apr-30 04:33N 56°18' E 012°23'1615.5
2016-Apr-30 03:33N 56°33' E 012°16'1616.3
2016-Apr-30 02:33N 56°49' E 012°09'1716.8
2016-Apr-30 01:33N 57°05' E 011°59'1717.2
2016-Apr-30 00:33N 57°20' E 011°45'1817.6
2016-Apr-29 23:33N 57°35' E 011°28'1817.8
2016-Apr-29 22:33N 57°52' E 011°16'1717.5
2016-Apr-29 21:33N 58°08' E 011°06'1716.9
2016-Apr-29 20:33N 58°25' E 010°57'1616.4
2016-Apr-29 19:33N 58°40' E 010°48'1616.4
2016-Apr-29 18:33N 58°57' E 010°43'1616.0
2016-Apr-29 17:33N 59°12' E 010°38'1716.5
2016-Apr-29 16:33N 59°29' E 010°34'1714.4
2016-Apr-29 15:22N 59°46' E 010°33'9 1.1
2016-Apr-29 07:19N 59°54' E 010°41'1114.7
2016-Apr-29 06:33N 59°43' E 010°35'1414.1
2016-Apr-29 05:34N 59°29' E 010°34'1616.0
2016-Apr-29 04:34N 59°13' E 010°38'1616.2
2016-Apr-29 03:34N 58°57' E 010°37'1716.5
2016-Apr-29 02:34N 58°40' E 010°33'1716.5
2016-Apr-29 01:33N 58°24' E 010°42'1717.0
2016-Apr-29 00:34N 58°08' E 010°52'1717.0
2016-Apr-28 23:34N 57°52' E 011°03'1615.9
2016-Apr-28 22:34N 57°38' E 011°17'1616.2
2016-Apr-28 21:34N 57°24' E 011°30'1716.6
2016-Apr-28 20:34N 57°08' E 011°40'1616.4
2016-Apr-28 19:34N 56°53' E 011°52'1616.4
2016-Apr-28 18:34N 56°39' E 012°07'2416.7
2016-Apr-28 17:06N 56°17' E 012°25'916.6
2016-Apr-28 16:33N 56°08' E 012°32'1616.4
2016-Apr-28 15:34N 55°53' E 012°44'1212.2
2016-Apr-28 14:33N 55°42' E 012°36'0 0.0
2016-Apr-28 13:32N 55°42' E 012°36'0 0.0
2016-Apr-28 12:32N 55°42' E 012°36'0 0.0
2016-Apr-28 11:32N 55°42' E 012°36'0 0.0
2016-Apr-28 10:19N 55°42' E 012°36'0 0.0
2016-Apr-28 09:33N 55°42' E 012°36'0 0.0
2016-Apr-28 08:33N 55°42' E 012°36'0 0.2
2016-Apr-28 07:33N 55°42' E 012°36'10 9.9
2016-Apr-28 06:33N 55°52' E 012°41'1313.2
2016-Apr-28 05:34N 56°05' E 012°36'3115.4
2016-Apr-28 03:31N 56°34' E 012°16'1616.6
2016-Apr-28 02:33N 56°50' E 012°09'1716.5
2016-Apr-28 01:33N 57°05' E 011°59'1616.4
2016-Apr-28 00:33N 57°20' E 011°45'1615.9
2016-Apr-27 23:33N 57°33' E 011°29'1515.1
2016-Apr-27 22:33N 57°47' E 011°19'1616.1
2016-Apr-27 21:34N 58°02' E 011°09'1716.6
2016-Apr-27 20:33N 58°18' E 011°01'1716.9
2016-Apr-27 19:34N 58°35' E 010°51'1717.1
2016-Apr-27 18:33N 58°51' E 010°44'1817.6
2016-Apr-27 17:33N 59°09' E 010°39'1717.2
2016-Apr-27 16:34N 59°26' E 010°34'1514.8
2016-Apr-27 15:33N 59°40' E 010°37'13 1.6
2016-Apr-27 07:22N 59°54' E 010°41'1215.3
2016-Apr-27 06:33N 59°41' E 010°36'1312.8
2016-Apr-27 05:33N 59°29' E 010°34'1616.1
2016-Apr-27 04:33N 59°13' E 010°39'1615.9
2016-Apr-27 03:33N 58°57' E 010°42'1615.8
2016-Apr-27 02:33N 58°41' E 010°45'1616.1
2016-Apr-27 01:33N 58°26' E 010°55'1616.3
2016-Apr-27 00:33N 58°10' E 011°04'1616.3
2016-Apr-26 23:33N 57°55' E 011°13'1716.9
2016-Apr-26 22:33N 57°39' E 011°23'1716.8
2016-Apr-26 21:33N 57°23' E 011°32'1616.2
2016-Apr-26 20:33N 57°07' E 011°41'1716.5
2016-Apr-26 19:30N 56°51' E 011°53'1516.1
2016-Apr-26 18:33N 56°38' E 012°07'3316.6
2016-Apr-26 16:34N 56°08' E 012°32'1817.6
2016-Apr-26 15:33N 55°52' E 012°45'1110.7
2016-Apr-26 14:33N 55°42' E 012°36'0 0.0
2016-Apr-26 13:33N 55°42' E 012°36'0 0.0
2016-Apr-26 12:33N 55°42' E 012°36'0 0.0
2016-Apr-26 11:33N 55°42' E 012°36'0 0.0
2016-Apr-26 10:33N 55°42' E 012°36'0 0.0
2016-Apr-26 09:33N 55°42' E 012°36'0 0.0
2016-Apr-26 08:33N 55°42' E 012°36'0 0.3
2016-Apr-26 07:34N 55°42' E 012°36'1211.5
2016-Apr-26 06:34N 55°54' E 012°40'1413.9
2016-Apr-26 05:34N 56°07' E 012°32'3014.8
2016-Apr-26 03:33N 56°35' E 012°13'1616.0
2016-Apr-26 02:33N 56°50' E 012°04'1615.9
2016-Apr-26 01:33N 57°05' E 011°57'1615.9
2016-Apr-26 00:34N 57°20' E 011°45'1616.2
2016-Apr-25 23:33N 57°34' E 011°30'1616.1
2016-Apr-25 22:33N 57°49' E 011°17'1615.8
2016-Apr-25 21:33N 58°04' E 011°09'1615.9
2016-Apr-25 20:33N 58°19' E 010°60'1616.5
2016-Apr-25 19:33N 58°35' E 010°50'1717.3
2016-Apr-25 18:33N 58°51' E 010°43'1717.4
2016-Apr-25 17:33N 59°09' E 010°39'1716.8
2016-Apr-25 16:33N 59°25' E 010°33'1515.2
2016-Apr-25 15:33N 59°41' E 010°37'13 1.6
2016-Apr-25 07:17N 59°54' E 010°41'1115.2
2016-Apr-25 06:33N 59°43' E 010°35'1413.8
2016-Apr-25 05:33N 59°29' E 010°35'1616.1
2016-Apr-25 04:33N 59°13' E 010°38'1616.0
2016-Apr-25 03:33N 58°57' E 010°43'1615.9
2016-Apr-25 02:33N 58°41' E 010°46'1615.7
2016-Apr-25 01:33N 58°26' E 010°55'1615.9
2016-Apr-25 00:33N 58°11' E 011°04'1615.9
2016-Apr-24 23:33N 57°56' E 011°13'1615.9
2016-Apr-24 22:33N 57°41' E 011°22'1615.8
2016-Apr-24 21:33N 57°26' E 011°31'1615.8
2016-Apr-24 20:33N 57°11' E 011°40'1616.2
2016-Apr-24 19:33N 56°55' E 011°49'1616.1
2016-Apr-24 18:33N 56°42' E 012°05'1616.1
2016-Apr-24 17:33N 56°27' E 012°17'1716.9
2016-Apr-24 16:32N 56°11' E 012°30'1616.8
2016-Apr-24 15:33N 55°57' E 012°43'1514.6
2016-Apr-24 14:33N 55°43' E 012°37'1 0.7
2016-Apr-24 13:32N 55°42' E 012°36'0 0.0
2016-Apr-24 12:32N 55°42' E 012°36'0 0.0
2016-Apr-24 11:32N 55°42' E 012°36'0 0.0
2016-Apr-24 10:32N 55°42' E 012°36'0 0.0
2016-Apr-24 09:32N 55°42' E 012°36'0 0.0
2016-Apr-24 08:32N 55°42' E 012°36'0 0.3
2016-Apr-24 07:33N 55°42' E 012°36'1211.6
2016-Apr-24 06:34N 55°54' E 012°40'1413.7
2016-Apr-24 05:34N 56°07' E 012°32'2214.9
2016-Apr-24 04:06N 56°27' E 012°18'815.2
2016-Apr-24 03:33N 56°35' E 012°13'1515.5
2016-Apr-24 02:33N 56°50' E 012°05'1616.2
2016-Apr-24 01:33N 57°05' E 011°57'1616.4
2016-Apr-24 00:33N 57°20' E 011°44'1716.7
2016-Apr-23 23:33N 57°35' E 011°29'1716.8
2016-Apr-23 22:33N 57°50' E 011°16'1616.5
2016-Apr-23 21:33N 58°06' E 011°08'1616.1
2016-Apr-23 20:33N 58°21' E 010°59'1616.4
2016-Apr-23 19:34N 58°37' E 010°50'1717.4
2016-Apr-23 18:33N 58°54' E 010°43'1818.0
2016-Apr-23 17:33N 59°12' E 010°38'1717.4
2016-Apr-23 16:33N 59°29' E 010°34'1413.7
2016-Apr-23 15:33N 59°43' E 010°35'11 1.4
2016-Apr-23 07:20N 59°54' E 010°41'1214.9
2016-Apr-23 06:32N 59°42' E 010°36'1313.4
2016-Apr-23 05:33N 59°29' E 010°34'1616.3
2016-Apr-23 04:33N 59°13' E 010°38'  

Dump ship's entire track history